Дата Пункты Температура Давл., мм. Влажн., % Ветер Погодные явления
Воздуха Воды Направл. Скорость
01.01.20 08:00 Одесса 3.0 7.0 766 64 Пн 3 20 ГОДИН
01.01.20 05:00 Одесса 4.0 7.0 764 68 Пн 3 17 ГОДИН
01.01.20 02:00 Одесса 4.0 7.0 762 71 Пн-З 4 14 ГОДИН
01.01.20 11:00 Одесса 6.0 7.0 761 64 Пн-З 5 11 ГОДИН
01.01.20 08:00 Одесса 3.0 7.0 759 83 Пн-З 5 08 ГОДИН
01.01.20 05:00 Одесса 3.0 6.0 758 80 Пн-З 6 05 ГОДИН
01.01.20 02:00 Одесса 3.0 6.0 758 76 Пн-З 5 02 ГОДИНИ
31.12.19 11:00 Одесса 4.0 6.0 758 74 Пн-З 4 23 ГОДИНИ
31.12.19 08:00 Одесса 3.0 6.0 758 89 З 2 20 ГОДИН
31.12.19 05:00 Одесса 3.0 6.0 758 78 З 3 17 ГОДИН
31.12.19 02:00 Одесса 3.0 6.0 759 74 З 3 14 ГОДИН
31.12.19 11:00 Одесса 1.0 6.0 762 76 З 4 11 ГОДИН
31.12.19 08:00 Одесса -2.0 6.0 764 89 З 3 08 ГОДИН
31.12.19 05:00 Одесса -3.0 7.0 765 91 З 2 05 ГОДИН
31.12.19 02:00 Одесса -2.0 7.0 767 87 Пн-З 2 02 ГОДИНИ
30.12.19 05:00 Одесса 1.0 7.0 770 75 Пн 3 17 ГОДИН
30.12.19 11:00 Одесса 1.0 7.0 772 83 Пн 3 11 ГОДИН
30.12.19 08:00 Одесса 1.0 7.0 771 87 Пн 3 08 ГОДИН
30.12.19 05:00 Одесса 2.0 7.0 771 88 Пн 2 05 ГОДИН
30.12.19 02:00 Одесса 3.0 7.0 770 89 Пн 6 02 ГОДИНИ
Количество строк
1 2 3 4 5 6 7 8 9 10
Page 10 of 579